Terminal Aerodrome Forecast
Issued by NWS Shreveport, LA

Home | Current Version | Previous Version | Text Only | Print | Product List | Glossary On
Versions: 1 2 3 4 5 6 7 8 9 10 11 12 13
000
FTUS44 KSHV 200500 RRA
TAFMLU
TAF
KMLU 200541Z 2006/2106 03006KT 6SM BR OVC008
     FM201000 02004KT 6SM BR SCT008 OVC012
      TEMPO 2010/2014 4SM BR BKN008
     FM201600 03006KT P6SM BKN020
     FM201800 03006KT P6SM SCT025
     FM210000 03003KT P6SM FEW030=

USA.gov is the U.S. government's official web portal to all federal, state and local government web resources and services.